Time;durP1;ratioP1;P1;durP2;ratioP2;P2;SDS_P1;SDS_P2;PMS_P1;PMS_P2;Temp;Humidity;BMP_temperature;BMP_pressure;BME280_temperature;BME280_humidity;BME280_pressure;Samples;Min_cycle;Max_cycle;Signal;HPM_P1;HPM_P2
2023/09/03 00:00:03;;;;;;;15.70;9.48;;;;;;;;;;6182660;23;20024;-43
2023/09/03 00:02:31;;;;;;;16.20;9.48;;;;;;;;;;6176129;23;20013;-41
2023/09/03 00:04:59;;;;;;;15.40;8.57;;;;;;;;;;6189469;23;20016;-41
2023/09/03 00:07:29;;;;;;;13.65;7.93;;;;;;;;;;6172621;23;20402;-41
2023/09/03 00:09:56;;;;;;;14.63;8.73;;;;;;;;;;6191452;23;20174;-41
2023/09/03 00:12:25;;;;;;;16.40;8.30;;;;;;;;;;6172085;23;20445;-43
2023/09/03 00:14:54;;;;;;;13.40;7.90;;;;;;;;;;6184525;23;20021;-41
2023/09/03 00:17:22;;;;;;;12.77;6.97;;;;;;;;;;6177724;23;20084;-44
2023/09/03 00:19:51;;;;;;;13.73;7.10;;;;;;;;;;6185996;23;20845;-41
2023/09/03 00:22:18;;;;;;;13.45;7.00;;;;;;;;;;6181238;23;20070;-41
2023/09/03 00:24:47;;;;;;;12.50;6.72;;;;;;;;;;6185368;23;20020;-42
2023/09/03 00:27:16;;;;;;;12.15;6.60;;;;;;;;;;6174749;23;20410;-41
2023/09/03 00:29:44;;;;;;;10.77;6.47;;;;;;;;;;6182898;23;20432;-42
2023/09/03 00:32:12;;;;;;;11.48;6.63;;;;;;;;;;6170203;23;20016;-42
2023/09/03 00:34:40;;;;;;;10.00;6.55;;;;;;;;;;6186835;23;20056;-42
2023/09/03 00:37:07;;;;;;;12.85;6.28;;;;;;;;;;6179508;23;20075;-41
2023/09/03 00:39:36;;;;;;;11.95;6.38;;;;;;;;;;6180405;23;20071;-42
2023/09/03 00:42:05;;;;;;;13.30;6.87;;;;;;;;;;6175686;23;20016;-42
2023/09/03 00:44:33;;;;;;;11.75;6.70;;;;;;;;;;6186954;23;20019;-41
2023/09/03 00:47:01;;;;;;;11.43;6.30;;;;;;;;;;6180437;23;20361;-44
2023/09/03 00:49:29;;;;;;;11.00;6.03;;;;;;;;;;6185216;23;20012;-44
2023/09/03 00:51:58;;;;;;;11.07;5.90;;;;;;;;;;6180461;23;20028;-43
2023/09/03 00:54:27;;;;;;;10.67;6.00;;;;;;;;;;6190538;23;20024;-43
2023/09/03 00:56:57;;;;;;;11.38;5.60;;;;;;;;;;6189583;23;20021;-42
2023/09/03 00:59:29;;;;;;;11.48;6.03;;;;;;;;;;6179744;23;20165;-44
2023/09/03 01:01:58;;;;;;;9.80;5.88;;;;;;;;;;6189864;23;20021;-45
2023/09/03 01:04:26;;;;;;;9.80;5.78;;;;;;;;;;6172432;23;20876;-42
2023/09/03 01:06:55;;;;;;;10.30;6.43;;;;;;;;;;6188909;23;20016;-43
2023/09/03 01:09:22;;;;;;;10.98;6.38;;;;;;;;;;6179838;23;20020;-45
2023/09/03 01:11:58;;;;;;;13.68;6.65;;;;;;;;;;6187857;23;20509;-42
2023/09/03 01:14:30;;;;;;;10.57;6.13;;;;;;;;;;6178101;23;20017;-43
2023/09/03 01:17:02;;;;;;;11.52;6.25;;;;;;;;;;6191340;23;20013;-42
2023/09/03 01:19:49;;;;;;;10.43;6.53;;;;;;;;;;6192282;23;20017;-43
2023/09/03 01:22:22;;;;;;;9.80;5.70;;;;;;;;;;6177067;23;20020;-43
2023/09/03 01:24:57;;;;;;;11.05;6.10;;;;;;;;;;6187163;23;20074;-42
2023/09/03 01:27:30;;;;;;;10.55;5.88;;;;;;;;;;6179751;23;20461;-43
2023/09/03 01:30:01;;;;;;;11.75;6.88;;;;;;;;;;6189362;23;20083;-43
2023/09/03 01:32:29;;;;;;;11.47;6.60;;;;;;;;;;6182200;23;20016;-42
2023/09/03 01:34:57;;;;;;;10.38;6.63;;;;;;;;;;6173801;23;20012;-43
2023/09/03 01:37:27;;;;;;;11.80;6.95;;;;;;;;;;6184805;23;20024;-42
2023/09/03 01:39:56;;;;;;;11.50;6.78;;;;;;;;;;6178163;23;20570;-42
2023/09/03 01:42:24;;;;;;;11.18;6.63;;;;;;;;;;6157323;23;20372;-42
2023/09/03 01:44:53;;;;;;;13.43;7.57;;;;;;;;;;6188530;23;20016;-43
2023/09/03 01:47:28;;;;;;;15.38;7.72;;;;;;;;;;6141294;23;20020;-41
2023/09/03 01:50:00;;;;;;;13.98;7.32;;;;;;;;;;6189506;23;20017;-44
2023/09/03 01:52:30;;;;;;;15.60;7.88;;;;;;;;;;6196778;23;20261;-42
2023/09/03 01:54:58;;;;;;;13.95;7.50;;;;;;;;;;6171180;23;20301;-41
2023/09/03 01:57:29;;;;;;;15.37;7.67;;;;;;;;;;6196371;23;20439;-42
2023/09/03 01:59:58;;;;;;;14.18;7.28;;;;;;;;;;6185409;23;20024;-43
2023/09/03 02:02:29;;;;;;;12.95;7.93;;;;;;;;;;6184517;23;20021;-43
2023/09/03 02:04:58;;;;;;;11.38;7.13;;;;;;;;;;6195485;23;20048;-43
2023/09/03 02:07:29;;;;;;;11.88;7.13;;;;;;;;;;6193186;23;20063;-43
2023/09/03 02:09:57;;;;;;;14.20;7.33;;;;;;;;;;6187596;23;20032;-42
2023/09/03 02:12:24;;;;;;;12.75;6.50;;;;;;;;;;6188367;23;20444;-42
2023/09/03 02:14:53;;;;;;;12.23;6.93;;;;;;;;;;6179185;23;20376;-45
2023/09/03 02:17:21;;;;;;;12.80;6.40;;;;;;;;;;6193851;23;20121;-43
2023/09/03 02:19:50;;;;;;;12.95;7.20;;;;;;;;;;6192382;23;20020;-42
2023/09/03 02:22:23;;;;;;;14.70;7.40;;;;;;;;;;6193987;23;20017;-42
2023/09/03 02:24:50;;;;;;;16.25;8.50;;;;;;;;;;6194378;23;20024;-41
2023/09/03 02:27:18;;;;;;;16.42;8.60;;;;;;;;;;6186454;23;20017;-42
2023/09/03 02:29:47;;;;;;;15.32;7.93;;;;;;;;;;6191448;23;20016;-42
2023/09/03 02:32:14;;;;;;;15.55;8.05;;;;;;;;;;6188772;23;20591;-43
2023/09/03 02:34:42;;;;;;;14.03;8.27;;;;;;;;;;6192124;23;20131;-41
2023/09/03 02:37:11;;;;;;;15.07;8.30;;;;;;;;;;6182835;23;20017;-41
2023/09/03 02:39:39;;;;;;;14.40;8.77;;;;;;;;;;6191930;23;20017;-43
2023/09/03 02:42:06;;;;;;;15.52;8.05;;;;;;;;;;6187829;23;20469;-44
2023/09/03 02:44:35;;;;;;;15.45;8.88;;;;;;;;;;6192877;23;20017;-43
2023/09/03 02:47:02;;;;;;;13.00;7.90;;;;;;;;;;6188762;23;20444;-42
2023/09/03 02:49:30;;;;;;;14.40;8.68;;;;;;;;;;6182758;23;20027;-42
2023/09/03 02:51:58;;;;;;;16.20;8.77;;;;;;;;;;6193375;23;20021;-43
2023/09/03 02:54:27;;;;;;;16.27;8.43;;;;;;;;;;6183156;23;20561;-41
2023/09/03 02:56:55;;;;;;;14.75;8.15;;;;;;;;;;6190357;23;20104;-43
2023/09/03 02:59:23;;;;;;;15.60;9.47;;;;;;;;;;6185186;23;20070;-42
2023/09/03 03:01:51;;;;;;;17.17;8.43;;;;;;;;;;6179329;23;20020;-43
2023/09/03 03:04:19;;;;;;;16.58;8.25;;;;;;;;;;6193767;23;20017;-44
2023/09/03 03:06:48;;;;;;;17.52;7.80;;;;;;;;;;6184755;23;20012;-45
2023/09/03 03:09:16;;;;;;;15.85;8.27;;;;;;;;;;6190098;23;20012;-42
2023/09/03 03:11:46;;;;;;;14.87;8.77;;;;;;;;;;6186685;23;20012;-43
2023/09/03 03:14:15;;;;;;;15.75;8.13;;;;;;;;;;6186981;23;20027;-46
2023/09/03 03:16:42;;;;;;;18.55;7.85;;;;;;;;;;6191358;23;20031;-44
2023/09/03 03:19:12;;;;;;;15.60;8.50;;;;;;;;;;6187231;23;20705;-43
2023/09/03 03:21:40;;;;;;;14.95;7.60;;;;;;;;;;6190536;23;20013;-43
2023/09/03 03:24:08;;;;;;;14.73;8.00;;;;;;;;;;6179305;23;20016;-47
2023/09/03 03:26:35;;;;;;;14.43;7.82;;;;;;;;;;6190678;23;20017;-45
2023/09/03 03:29:07;;;;;;;14.57;8.25;;;;;;;;;;6178379;23;20016;-42
2023/09/03 03:31:35;;;;;;;14.23;7.78;;;;;;;;;;6190044;23;20083;-46
2023/09/03 03:34:03;;;;;;;13.05;7.68;;;;;;;;;;6187737;23;20016;-42
2023/09/03 03:36:32;;;;;;;11.77;6.90;;;;;;;;;;6188669;23;20614;-42
2023/09/03 03:39:00;;;;;;;11.98;6.85;;;;;;;;;;6116390;23;1753589;-45
2023/09/03 03:41:27;;;;;;;15.13;7.90;;;;;;;;;;6184285;23;20099;-43
2023/09/03 03:43:56;;;;;;;12.82;7.30;;;;;;;;;;6192239;23;20016;-42
2023/09/03 03:46:25;;;;;;;12.20;7.23;;;;;;;;;;6188283;23;20012;-42
2023/09/03 03:48:55;;;;;;;14.05;7.80;;;;;;;;;;6178068;23;20012;-43
2023/09/03 03:51:23;;;;;;;13.30;7.55;;;;;;;;;;6192901;23;20017;-42
2023/09/03 03:53:51;;;;;;;17.50;7.80;;;;;;;;;;6185914;23;20503;-42
2023/09/03 03:56:18;;;;;;;16.25;7.68;;;;;;;;;;6194649;23;20379;-45
2023/09/03 03:58:47;;;;;;;13.73;7.30;;;;;;;;;;6187281;23;20017;-42
2023/09/03 04:01:15;;;;;;;12.40;7.10;;;;;;;;;;6189083;23;20683;-44
2023/09/03 04:03:46;;;;;;;15.13;8.57;;;;;;;;;;6194768;23;20027;-42
2023/09/03 04:06:15;;;;;;;13.93;7.60;;;;;;;;;;6182929;23;20012;-44
2023/09/03 04:08:43;;;;;;;12.93;6.95;;;;;;;;;;6194837;23;20079;-42
2023/09/03 04:11:12;;;;;;;12.63;7.07;;;;;;;;;;6190894;23;20383;-41
2023/09/03 04:13:41;;;;;;;12.35;7.00;;;;;;;;;;6183904;23;20043;-42
2023/09/03 04:16:10;;;;;;;13.20;7.03;;;;;;;;;;6194559;23;20091;-42
2023/09/03 04:18:37;;;;;;;15.23;7.40;;;;;;;;;;6180941;23;20023;-41
2023/09/03 04:21:07;;;;;;;12.38;6.85;;;;;;;;;;6190466;23;20017;-41
2023/09/03 04:23:35;;;;;;;13.40;7.03;;;;;;;;;;6182574;23;20467;-42
2023/09/03 04:26:03;;;;;;;14.25;7.00;;;;;;;;;;6195015;23;20086;-41
2023/09/03 04:28:32;;;;;;;11.75;6.38;;;;;;;;;;6179856;23;20036;-41
2023/09/03 04:31:00;;;;;;;11.40;6.28;;;;;;;;;;6190529;23;20013;-41
2023/09/03 04:33:28;;;;;;;11.57;6.80;;;;;;;;;;6184437;23;20017;-41
2023/09/03 04:35:58;;;;;;;13.73;6.60;;;;;;;;;;6191953;23;20051;-41
2023/09/03 04:38:27;;;;;;;13.55;6.45;;;;;;;;;;6180201;23;20012;-41
2023/09/03 04:40:55;;;;;;;12.48;6.90;;;;;;;;;;6193090;23;20024;-44
2023/09/03 04:43:26;;;;;;;14.20;7.05;;;;;;;;;;6191023;23;20356;-42
2023/09/03 04:45:54;;;;;;;12.35;6.05;;;;;;;;;;6186772;23;20023;-42
2023/09/03 04:48:22;;;;;;;11.87;5.50;;;;;;;;;;6183476;23;20488;-42
2023/09/03 04:50:50;;;;;;;10.80;6.03;;;;;;;;;;6180753;23;20342;-42
2023/09/03 04:53:18;;;;;;;12.18;6.00;;;;;;;;;;6181557;23;20027;-43
2023/09/03 04:55:47;;;;;;;10.85;5.50;;;;;;;;;;6183656;23;20012;-43
2023/09/03 04:58:15;;;;;;;10.95;6.18;;;;;;;;;;6181357;23;20020;-42
2023/09/03 05:00:43;;;;;;;10.10;5.73;;;;;;;;;;6184757;23;20023;-42
2023/09/03 05:03:11;;;;;;;11.00;5.72;;;;;;;;;;6184140;23;20020;-42
2023/09/03 05:05:40;;;;;;;9.93;5.70;;;;;;;;;;6185758;23;20121;-42
2023/09/03 05:08:08;;;;;;;11.05;6.03;;;;;;;;;;6177598;23;20013;-43
2023/09/03 05:10:35;;;;;;;10.65;5.72;;;;;;;;;;6180468;23;20020;-42
2023/09/03 05:13:05;;;;;;;10.00;5.43;;;;;;;;;;6188974;23;20021;-41
2023/09/03 05:15:33;;;;;;;10.57;5.40;;;;;;;;;;6177607;23;20405;-43
2023/09/03 05:18:01;;;;;;;11.70;5.75;;;;;;;;;;6188277;23;20046;-42
2023/09/03 05:20:32;;;;;;;10.52;5.88;;;;;;;;;;6183417;23;20100;-42
2023/09/03 05:22:59;;;;;;;10.90;5.47;;;;;;;;;;6184941;23;20012;-41
2023/09/03 05:25:27;;;;;;;10.07;5.97;;;;;;;;;;6178816;23;20092;-42
2023/09/03 05:27:55;;;;;;;14.23;5.60;;;;;;;;;;6185051;23;20017;-42
2023/09/03 05:30:25;;;;;;;10.27;5.00;;;;;;;;;;6181132;23;20016;-43
2023/09/03 05:32:57;;;;;;;10.27;5.65;;;;;;;;;;6184152;23;20115;-42
2023/09/03 05:35:26;;;;;;;11.10;5.55;;;;;;;;;;6187405;23;20651;-43
2023/09/03 05:37:53;;;;;;;10.87;6.10;;;;;;;;;;6180779;23;20086;-43
2023/09/03 05:40:21;;;;;;;10.73;5.90;;;;;;;;;;6187836;23;20013;-43
2023/09/03 05:42:49;;;;;;;12.55;6.43;;;;;;;;;;6170802;23;20013;-41
2023/09/03 05:45:17;;;;;;;11.77;6.10;;;;;;;;;;6187300;23;20023;-41
2023/09/03 05:47:46;;;;;;;11.85;6.47;;;;;;;;;;6178901;23;20012;-45
2023/09/03 05:50:14;;;;;;;13.53;7.23;;;;;;;;;;6186811;23;20047;-43
2023/09/03 05:52:42;;;;;;;16.83;7.78;;;;;;;;;;6183162;23;20016;-43
2023/09/03 05:55:10;;;;;;;15.23;7.93;;;;;;;;;;6180447;23;20460;-41
2023/09/03 05:57:40;;;;;;;21.75;9.23;;;;;;;;;;6183606;23;20016;-41
2023/09/03 06:00:08;;;;;;;15.70;8.65;;;;;;;;;;6178490;23;20012;-42
2023/09/03 06:02:35;;;;;;;25.90;10.83;;;;;;;;;;6189482;23;20043;-42
2023/09/03 06:05:05;;;;;;;19.20;10.23;;;;;;;;;;6171535;23;20021;-40
2023/09/03 06:07:32;;;;;;;19.40;10.43;;;;;;;;;;6188855;23;20026;-41
2023/09/03 06:10:00;;;;;;;17.40;9.68;;;;;;;;;;6180364;23;20340;-43
2023/09/03 06:12:28;;;;;;;19.48;9.85;;;;;;;;;;6191252;23;20423;-41
2023/09/03 06:14:56;;;;;;;16.67;8.87;;;;;;;;;;6183929;23;20508;-42
2023/09/03 06:17:24;;;;;;;19.40;8.88;;;;;;;;;;6182691;23;20020;-42
2023/09/03 06:19:52;;;;;;;18.35;9.00;;;;;;;;;;6184190;23;20018;-41
2023/09/03 06:22:21;;;;;;;24.58;11.20;;;;;;;;;;6180868;23;20062;-42
2023/09/03 06:24:49;;;;;;;25.75;12.20;;;;;;;;;;6191290;23;20025;-41
2023/09/03 06:27:19;;;;;;;30.80;13.30;;;;;;;;;;6189660;23;20498;-42
2023/09/03 06:29:48;;;;;;;31.90;13.18;;;;;;;;;;6181404;23;20012;-42
2023/09/03 06:32:15;;;;;;;36.53;13.27;;;;;;;;;;6193716;23;20013;-42
2023/09/03 06:34:44;;;;;;;36.40;12.65;;;;;;;;;;6177293;23;20031;-42
2023/09/03 06:37:12;;;;;;;53.42;15.90;;;;;;;;;;6188986;23;20095;-42
2023/09/03 06:39:41;;;;;;;55.60;17.47;;;;;;;;;;6174532;23;20020;-42
2023/09/03 06:42:09;;;;;;;61.03;18.42;;;;;;;;;;6184981;23;20013;-42
2023/09/03 06:44:37;;;;;;;59.15;19.10;;;;;;;;;;6181256;23;20020;-40
2023/09/03 06:47:07;;;;;;;54.88;18.38;;;;;;;;;;6182095;23;20017;-41
2023/09/03 06:49:37;;;;;;;58.58;17.92;;;;;;;;;;6181417;23;20020;-42
2023/09/03 06:52:05;;;;;;;62.10;19.07;;;;;;;;;;6187225;23;20017;-43
2023/09/03 06:54:32;;;;;;;66.35;20.58;;;;;;;;;;6187126;23;20523;-41
2023/09/03 06:57:02;;;;;;;91.13;24.58;;;;;;;;;;6180730;23;20028;-44
2023/09/03 06:59:30;;;;;;;107.40;24.90;;;;;;;;;;6185388;23;20421;-42
2023/09/03 07:02:01;;;;;;;111.38;24.80;;;;;;;;;;6184922;23;20017;-41
2023/09/03 07:04:29;;;;;;;108.20;22.60;;;;;;;;;;6189245;23;20080;-43
2023/09/03 07:06:57;;;;;;;100.03;23.42;;;;;;;;;;6184544;23;20023;-42
2023/09/03 07:09:33;;;;;;;89.07;23.75;;;;;;;;;;6176929;23;20023;-42
2023/09/03 07:12:04;;;;;;;101.00;23.70;;;;;;;;;;6170958;23;20013;-41
2023/09/03 07:14:32;;;;;;;100.78;22.80;;;;;;;;;;6181424;23;20017;-41
2023/09/03 07:17:04;;;;;;;101.43;23.73;;;;;;;;;;6181590;23;20100;-42
2023/09/03 07:19:32;;;;;;;83.03;25.33;;;;;;;;;;6189788;23;20030;-42
2023/09/03 07:22:00;;;;;;;88.43;25.45;;;;;;;;;;6180401;23;20584;-44
2023/09/03 07:24:27;;;;;;;94.90;26.90;;;;;;;;;;6181150;23;20082;-43
2023/09/03 07:26:56;;;;;;;82.15;24.05;;;;;;;;;;6180536;23;20408;-41
2023/09/03 07:29:25;;;;;;;76.27;20.20;;;;;;;;;;6181941;23;20443;-44
2023/09/03 07:31:53;;;;;;;89.25;22.05;;;;;;;;;;6180415;23;20020;-43
2023/09/03 07:34:21;;;;;;;92.95;22.02;;;;;;;;;;6189283;23;20032;-43
2023/09/03 07:36:48;;;;;;;83.90;20.45;;;;;;;;;;6176932;23;20465;-43
2023/09/03 07:39:17;;;;;;;82.70;21.63;;;;;;;;;;6186107;23;20108;-41
2023/09/03 07:41:46;;;;;;;72.23;21.00;;;;;;;;;;6181334;23;20036;-42
2023/09/03 07:44:15;;;;;;;64.47;19.30;;;;;;;;;;6187737;23;20020;-42
2023/09/03 07:46:44;;;;;;;88.60;19.80;;;;;;;;;;6187872;23;20016;-42
2023/09/03 07:49:12;;;;;;;68.38;18.45;;;;;;;;;;6181851;23;20017;-42
2023/09/03 07:51:40;;;;;;;52.03;17.58;;;;;;;;;;6180408;23;20013;-43
2023/09/03 07:54:08;;;;;;;51.90;17.10;;;;;;;;;;6168104;23;20394;-41
2023/09/03 07:56:36;;;;;;;63.03;19.60;;;;;;;;;;6178383;23;20039;-43
2023/09/03 07:59:04;;;;;;;58.67;19.27;;;;;;;;;;6186500;23;20023;-41
2023/09/03 08:01:32;;;;;;;54.28;18.00;;;;;;;;;;6168638;23;20031;-41
2023/09/03 08:04:02;;;;;;;56.85;18.67;;;;;;;;;;6189821;23;20024;-42
2023/09/03 08:06:29;;;;;;;52.93;17.97;;;;;;;;;;6178801;23;20017;-44
2023/09/03 08:08:57;;;;;;;65.20;20.02;;;;;;;;;;6184481;23;20407;-42
2023/09/03 08:11:25;;;;;;;58.78;19.73;;;;;;;;;;6169946;23;20564;-42
2023/09/03 08:14:00;;;;;;;48.83;18.17;;;;;;;;;;6181893;23;20090;-44
2023/09/03 08:16:29;;;;;;;51.35;17.77;;;;;;;;;;6168127;23;20017;-42
2023/09/03 08:18:57;;;;;;;51.53;18.53;;;;;;;;;;6187686;23;20067;-41
2023/09/03 08:21:26;;;;;;;46.97;18.23;;;;;;;;;;6178572;23;20451;-44
2023/09/03 08:23:55;;;;;;;50.08;19.48;;;;;;;;;;6179024;23;20020;-42
2023/09/03 08:26:22;;;;;;;51.60;18.73;;;;;;;;;;6185906;23;20522;-45
2023/09/03 08:28:50;;;;;;;48.78;19.38;;;;;;;;;;6173348;23;20367;-43
2023/09/03 08:31:18;;;;;;;45.63;17.97;;;;;;;;;;6182123;23;20379;-43
2023/09/03 08:33:53;;;;;;;45.95;19.17;;;;;;;;;;6179528;23;20067;-42
2023/09/03 08:36:22;;;;;;;47.75;20.80;;;;;;;;;;6183400;23;20100;-42
2023/09/03 08:38:51;;;;;;;51.45;20.58;;;;;;;;;;6180718;23;20451;-43
2023/09/03 08:41:19;;;;;;;52.97;20.55;;;;;;;;;;6183436;23;20017;-42
2023/09/03 08:43:49;;;;;;;49.63;21.40;;;;;;;;;;6168283;23;20306;-43
2023/09/03 08:46:17;;;;;;;45.88;20.35;;;;;;;;;;6185937;23;20024;-42
2023/09/03 08:48:47;;;;;;;52.20;20.88;;;;;;;;;;6174966;23;20499;-42
2023/09/03 08:51:18;;;;;;;46.05;20.77;;;;;;;;;;6179726;23;20360;-42
2023/09/03 08:53:46;;;;;;;45.58;20.95;;;;;;;;;;6182018;23;20108;-44
2023/09/03 08:56:15;;;;;;;49.73;21.37;;;;;;;;;;6165429;23;20116;-42
2023/09/03 08:58:43;;;;;;;45.60;22.08;;;;;;;;;;6178246;23;20020;-42
2023/09/03 09:01:12;;;;;;;50.38;22.88;;;;;;;;;;6162667;23;20337;-42
2023/09/03 09:03:41;;;;;;;57.92;25.02;;;;;;;;;;6177323;23;20021;-43
2023/09/03 09:06:09;;;;;;;49.08;23.55;;;;;;;;;;6177272;23;20046;-42
2023/09/03 09:08:39;;;;;;;52.93;24.27;;;;;;;;;;6183793;23;20013;-43
2023/09/03 09:11:11;;;;;;;53.45;24.27;;;;;;;;;;6183805;23;20107;-43
2023/09/03 09:13:47;;;;;;;52.03;24.38;;;;;;;;;;6173022;23;20024;-44
2023/09/03 09:16:15;;;;;;;51.03;25.00;;;;;;;;;;6188722;23;20024;-42
2023/09/03 09:18:43;;;;;;;48.70;22.70;;;;;;;;;;6174331;23;20067;-42
2023/09/03 09:21:10;;;;;;;47.83;21.73;;;;;;;;;;6189706;23;20023;-42
2023/09/03 09:23:38;;;;;;;47.28;21.20;;;;;;;;;;6173882;23;20501;-42
2023/09/03 09:26:15;;;;;;;47.50;22.50;;;;;;;;;;6189712;23;20028;-44
2023/09/03 09:28:56;;;;;;;46.40;21.80;;;;;;;;;;6173767;23;20017;-42
2023/09/03 09:31:26;;;;;;;39.90;20.42;;;;;;;;;;6177277;23;20452;-43
2023/09/03 09:33:54;;;;;;;40.60;20.43;;;;;;;;;;6189344;23;20020;-43
2023/09/03 09:36:22;;;;;;;39.40;19.63;;;;;;;;;;6173899;23;20407;-43
2023/09/03 09:38:51;;;;;;;37.38;19.52;;;;;;;;;;6184297;23;20407;-42
2023/09/03 09:41:22;;;;;;;41.58;20.38;;;;;;;;;;6174358;23;20681;-42
2023/09/03 09:43:52;;;;;;;35.38;18.10;;;;;;;;;;6188423;23;20430;-42
2023/09/03 09:46:27;;;;;;;36.27;18.87;;;;;;;;;;6181736;23;20016;-43
2023/09/03 09:48:57;;;;;;;34.30;18.05;;;;;;;;;;6179663;23;20016;-44
2023/09/03 09:51:26;;;;;;;32.90;16.63;;;;;;;;;;6187610;23;20051;-45
2023/09/03 09:53:54;;;;;;;34.92;16.58;;;;;;;;;;6186961;23;20027;-43
2023/09/03 09:56:30;;;;;;;33.45;17.45;;;;;;;;;;6186519;23;20051;-43
2023/09/03 09:59:03;;;;;;;32.47;16.00;;;;;;;;;;6187747;23;20017;-43
2023/09/03 10:01:42;;;;;;;28.85;15.02;;;;;;;;;;6176446;23;20016;-47
2023/09/03 10:04:10;;;;;;;24.58;13.38;;;;;;;;;;6186421;23;20022;-44
2023/09/03 10:06:38;;;;;;;26.75;14.25;;;;;;;;;;6179694;23;20071;-43
2023/09/03 10:09:07;;;;;;;26.63;13.55;;;;;;;;;;6182520;23;20017;-43
2023/09/03 10:11:35;;;;;;;28.93;15.70;;;;;;;;;;6185252;23;20020;-42
2023/09/03 10:14:05;;;;;;;23.88;13.45;;;;;;;;;;6180774;23;20017;-44
2023/09/03 10:16:32;;;;;;;28.15;14.52;;;;;;;;;;6186959;23;20075;-43
2023/09/03 10:19:02;;;;;;;24.15;12.40;;;;;;;;;;6175113;23;20104;-44
2023/09/03 10:21:31;;;;;;;23.73;11.00;;;;;;;;;;6189765;23;20032;-43
2023/09/03 10:24:20;;;;;;;21.93;10.17;;;;;;;;;;6189489;23;20140;-45
2023/09/03 10:26:50;;;;;;;20.48;10.25;;;;;;;;;;6177242;23;20513;-42
2023/09/03 10:29:20;;;;;;;17.27;9.25;;;;;;;;;;6191687;23;20514;-43
2023/09/03 10:31:48;;;;;;;15.20;8.20;;;;;;;;;;6172694;23;20440;-45
2023/09/03 10:34:17;;;;;;;15.23;7.70;;;;;;;;;;6180437;23;20071;-46
2023/09/03 10:37:03;;;;;;;18.63;8.97;;;;;;;;;;6179227;23;20393;-46
2023/09/03 10:39:31;;;;;;;16.50;8.70;;;;;;;;;;6176104;23;20070;-45
2023/09/03 10:42:18;;;;;;;15.90;8.32;;;;;;;;;;6188004;23;20013;-43
2023/09/03 10:44:50;;;;;;;14.45;6.97;;;;;;;;;;6176397;23;20379;-43
2023/09/03 10:47:19;;;;;;;15.05;7.95;;;;;;;;;;6187654;23;20016;-43
2023/09/03 10:49:48;;;;;;;15.13;7.73;;;;;;;;;;6190587;23;20440;-42
2023/09/03 10:52:31;;;;;;;14.57;6.80;;;;;;;;;;6173926;23;20452;-43
2023/09/03 10:55:15;;;;;;;15.60;7.75;;;;;;;;;;6184522;23;20399;-44
2023/09/03 10:57:47;;;;;;;12.68;6.57;;;;;;;;;;6186973;23;20341;-45
2023/09/03 11:00:21;;;;;;;13.63;7.10;;;;;;;;;;6173098;23;20025;-45
2023/09/03 11:02:49;;;;;;;7.63;2.77;;;;;;;;;;6188396;23;20091;-43
2023/09/03 11:05:23;;;;;;;15.18;6.60;;;;;;;;;;6189471;23;20027;-44
2023/09/03 11:08:10;;;;;;;13.95;6.90;;;;;;;;;;6174168;23;20044;-43
2023/09/03 11:10:41;;;;;;;11.32;6.50;;;;;;;;;;6182098;23;20032;-43
2023/09/03 11:13:10;;;;;;;11.75;6.32;;;;;;;;;;6185521;23;20017;-45
2023/09/03 11:15:55;;;;;;;11.60;6.17;;;;;;;;;;6179188;23;20017;-44
2023/09/03 11:18:28;;;;;;;12.85;6.35;;;;;;;;;;6179183;23;20043;-44
2023/09/03 11:20:57;;;;;;;9.98;5.22;;;;;;;;;;6191410;23;20075;-45
2023/09/03 11:23:27;;;;;;;13.05;5.82;;;;;;;;;;6175883;23;20067;-45
2023/09/03 11:26:02;;;;;;;11.45;5.90;;;;;;;;;;6191712;23;20020;-44
2023/09/03 11:28:35;;;;;;;7.60;3.40;;;;;;;;;;6176574;23;20027;-47
2023/09/03 11:31:04;;;;;;;7.78;3.83;;;;;;;;;;6188742;23;20023;-45
2023/09/03 11:33:33;;;;;;;5.25;2.13;;;;;;;;;;6167529;23;20136;-47
2023/09/03 11:36:01;;;;;;;8.63;4.60;;;;;;;;;;6187810;23;20569;-43
2023/09/03 11:38:32;;;;;;;8.07;2.95;;;;;;;;;;6179080;23;20023;-45
2023/09/03 11:41:00;;;;;;;8.90;4.43;;;;;;;;;;6182977;23;20016;-45
2023/09/03 11:43:31;;;;;;;12.90;6.03;;;;;;;;;;6185933;23;20012;-43
2023/09/03 11:46:00;;;;;;;10.32;5.47;;;;;;;;;;6184429;23;20330;-43
2023/09/03 11:48:36;;;;;;;11.07;4.72;;;;;;;;;;6185170;23;20023;-43
2023/09/03 11:51:04;;;;;;;7.43;3.60;;;;;;;;;;6183106;23;20013;-44
2023/09/03 11:53:39;;;;;;;8.93;4.10;;;;;;;;;;6181754;23;20043;-46
2023/09/03 11:56:08;;;;;;;9.35;3.92;;;;;;;;;;6187899;23;20023;-44
2023/09/03 11:58:37;;;;;;;5.25;2.25;;;;;;;;;;6183312;23;20013;-43
2023/09/03 12:01:05;;;;;;;5.75;1.52;;;;;;;;;;6184636;23;20020;-47
2023/09/03 12:03:34;;;;;;;6.32;3.38;;;;;;;;;;6186111;23;20074;-45
2023/09/03 12:06:03;;;;;;;7.70;3.90;;;;;;;;;;6174361;23;20047;-46
2023/09/03 12:08:32;;;;;;;10.05;4.20;;;;;;;;;;6182396;23;20016;-46
2023/09/03 12:10:59;;;;;;;4.68;1.55;;;;;;;;;;6182541;23;20452;-46
2023/09/03 12:13:29;;;;;;;8.18;4.07;;;;;;;;;;6187995;23;20024;-45
2023/09/03 12:16:04;;;;;;;5.07;2.00;;;;;;;;;;6181339;23;20022;-42
2023/09/03 12:18:32;;;;;;;5.23;2.40;;;;;;;;;;6181056;23;20062;-44
2023/09/03 12:21:01;;;;;;;9.77;3.28;;;;;;;;;;6191757;23;20314;-43
2023/09/03 12:23:28;;;;;;;6.93;3.33;;;;;;;;;;6174779;23;20514;-43
2023/09/03 12:25:57;;;;;;;6.53;2.70;;;;;;;;;;6184175;23;20027;-48
2023/09/03 12:28:32;;;;;;;5.32;2.13;;;;;;;;;;6181036;23;20017;-42
2023/09/03 12:31:01;;;;;;;7.33;2.97;;;;;;;;;;6189556;23;20023;-43
2023/09/03 12:33:44;;;;;;;7.30;3.70;;;;;;;;;;6183356;23;20021;-44
2023/09/03 12:36:15;;;;;;;6.82;3.60;;;;;;;;;;6177364;23;20016;-44
2023/09/03 12:38:55;;;;;;;6.80;2.83;;;;;;;;;;6188278;23;20016;-44
2023/09/03 12:41:25;;;;;;;6.55;2.80;;;;;;;;;;6175769;23;20644;-47
2023/09/03 12:43:53;;;;;;;4.17;1.60;;;;;;;;;;6188027;23;20012;-43
2023/09/03 12:46:21;;;;;;;7.53;3.30;;;;;;;;;;6179547;23;20344;-43
2023/09/03 12:48:49;;;;;;;5.70;3.20;;;;;;;;;;6185007;23;20016;-43
2023/09/03 12:51:20;;;;;;;6.35;2.60;;;;;;;;;;6179358;23;20471;-43
2023/09/03 12:53:47;;;;;;;7.70;2.92;;;;;;;;;;6187666;23;20023;-46
2023/09/03 12:56:16;;;;;;;3.50;1.10;;;;;;;;;;6184566;23;20428;-44
2023/09/03 12:58:46;;;;;;;3.80;1.30;;;;;;;;;;6182036;23;20459;-44
2023/09/03 13:01:14;;;;;;;6.88;3.03;;;;;;;;;;6187907;23;20029;-45
2023/09/03 13:03:44;;;;;;;8.52;3.47;;;;;;;;;;6190707;23;20020;-43
2023/09/03 13:06:13;;;;;;;6.25;2.58;;;;;;;;;;6181502;23;20032;-44
2023/09/03 13:08:43;;;;;;;5.63;2.27;;;;;;;;;;6186792;23;20020;-45
2023/09/03 13:11:13;;;;;;;6.43;2.67;;;;;;;;;;6187528;23;20509;-45
2023/09/03 13:13:41;;;;;;;4.25;1.70;;;;;;;;;;6176732;23;20012;-44
2023/09/03 13:16:08;;;;;;;4.50;1.45;;;;;;;;;;6187819;23;20432;-43
2023/09/03 13:18:37;;;;;;;5.60;2.38;;;;;;;;;;6169227;23;20371;-43
2023/09/03 13:21:06;;;;;;;4.70;1.80;;;;;;;;;;6190965;23;20686;-45
2023/09/03 13:23:34;;;;;;;4.97;2.10;;;;;;;;;;6180638;23;20403;-44
2023/09/03 13:26:04;;;;;;;6.85;3.03;;;;;;;;;;6187167;23;20013;-47
2023/09/03 13:28:32;;;;;;;8.55;3.45;;;;;;;;;;6173030;23;20021;-45
2023/09/03 13:31:00;;;;;;;6.75;3.10;;;;;;;;;;6184044;23;20420;-43
2023/09/03 13:33:35;;;;;;;3.70;1.10;;;;;;;;;;6176893;23;20016;-44
2023/09/03 13:36:03;;;;;;;4.95;1.85;;;;;;;;;;6186756;23;20055;-46
2023/09/03 13:38:34;;;;;;;4.07;1.52;;;;;;;;;;6183219;23;20074;-46
2023/09/03 13:41:05;;;;;;;3.65;1.13;;;;;;;;;;6182005;23;20013;-46
2023/09/03 13:43:33;;;;;;;6.55;2.97;;;;;;;;;;6185121;23;20021;-44
2023/09/03 13:46:01;;;;;;;7.97;3.10;;;;;;;;;;6188165;23;20091;-43
2023/09/03 13:48:33;;;;;;;6.43;3.00;;;;;;;;;;6187763;23;20024;-43
2023/09/03 13:51:08;;;;;;;5.63;2.58;;;;;;;;;;6183997;23;20464;-47
2023/09/03 13:53:36;;;;;;;5.97;2.30;;;;;;;;;;6181115;23;20021;-45
2023/09/03 13:56:06;;;;;;;4.20;1.77;;;;;;;;;;6186950;23;20088;-43
2023/09/03 13:58:35;;;;;;;3.90;1.17;;;;;;;;;;6175008;23;20079;-45
2023/09/03 14:01:06;;;;;;;6.32;2.97;;;;;;;;;;6185216;23;20017;-45
2023/09/03 14:03:35;;;;;;;7.32;3.63;;;;;;;;;;6174323;23;20427;-46
2023/09/03 14:06:04;;;;;;;4.20;1.70;;;;;;;;;;6186857;23;20071;-44
2023/09/03 14:08:33;;;;;;;4.88;1.75;;;;;;;;;;6185356;23;20020;-46
2023/09/03 14:11:00;;;;;;;5.20;2.30;;;;;;;;;;6183659;23;20062;-43
2023/09/03 14:13:30;;;;;;;6.10;2.50;;;;;;;;;;6185472;23;20024;-45
2023/09/03 14:15:58;;;;;;;5.22;2.20;;;;;;;;;;6179338;23;20013;-43
2023/09/03 14:18:28;;;;;;;4.13;1.75;;;;;;;;;;6185364;23;20017;-45
2023/09/03 14:20:56;;;;;;;5.32;2.63;;;;;;;;;;6186481;23;20539;-44
2023/09/03 14:23:24;;;;;;;5.63;2.30;;;;;;;;;;6177119;23;20028;-45
2023/09/03 14:25:52;;;;;;;4.35;1.63;;;;;;;;;;6184787;23;20028;-46
2023/09/03 14:28:20;;;;;;;5.20;2.47;;;;;;;;;;6173851;23;20024;-43
2023/09/03 14:30:50;;;;;;;7.03;2.72;;;;;;;;;;6189863;23;20012;-43
2023/09/03 14:33:18;;;;;;;6.00;2.85;;;;;;;;;;6178219;23;20425;-44
2023/09/03 14:35:50;;;;;;;7.53;2.90;;;;;;;;;;6190323;23;20341;-44
2023/09/03 14:38:18;;;;;;;5.63;1.90;;;;;;;;;;6178458;23;20013;-44
2023/09/03 14:40:49;;;;;;;5.75;2.10;;;;;;;;;;6186813;23;20057;-45